createdAt,value
2023-11-23T00:01:21.958Z,-1.80
2023-11-23T00:03:49.667Z,-1.78
2023-11-23T00:06:17.549Z,-1.78
2023-11-23T00:08:45.461Z,-1.78
2023-11-23T00:11:13.176Z,-1.79
2023-11-23T00:13:40.773Z,-1.80
2023-11-23T00:16:08.696Z,-1.78
2023-11-23T00:18:36.498Z,-1.74
2023-11-23T00:21:04.393Z,-1.71
2023-11-23T00:23:33.273Z,-1.70
2023-11-23T00:26:03.825Z,-1.70
2023-11-23T00:28:31.700Z,-1.72
2023-11-23T00:30:59.581Z,-1.74
2023-11-23T00:33:27.335Z,-1.73
2023-11-23T00:35:55.503Z,-1.70
2023-11-23T00:38:23.475Z,-1.67
2023-11-23T00:40:51.103Z,-1.65
2023-11-23T00:43:18.671Z,-1.64
2023-11-23T00:45:46.240Z,-1.65
2023-11-23T00:48:14.203Z,-1.66
2023-11-23T00:50:41.965Z,-1.65
2023-11-23T00:53:09.624Z,-1.60
2023-11-23T00:55:38.035Z,-1.55
2023-11-23T00:58:06.174Z,-1.51
2023-11-23T01:00:33.934Z,-1.50
2023-11-23T01:03:02.451Z,-1.51
2023-11-23T01:05:30.506Z,-1.54
2023-11-23T01:07:58.371Z,-1.57
2023-11-23T01:10:26.113Z,-1.54
2023-11-23T01:12:55.760Z,-1.51
2023-11-23T01:15:24.968Z,-1.50
2023-11-23T01:17:52.633Z,-1.51
2023-11-23T01:20:20.321Z,-1.54
2023-11-23T01:22:48.274Z,-1.56
2023-11-23T01:25:16.118Z,-1.54
2023-11-23T01:27:43.784Z,-1.52
2023-11-23T01:30:11.929Z,-1.50
2023-11-23T01:32:39.968Z,-1.51
2023-11-23T01:35:09.366Z,-1.55
2023-11-23T01:37:37.127Z,-1.59
2023-11-23T01:40:05.498Z,-1.61
2023-11-23T01:42:33.092Z,-1.63
2023-11-23T01:45:00.787Z,-1.62
2023-11-23T01:47:28.457Z,-1.58
2023-11-23T01:49:56.253Z,-1.56
2023-11-23T01:52:24.400Z,-1.55
2023-11-23T01:54:52.191Z,-1.56
2023-11-23T01:57:20.733Z,-1.58
2023-11-23T01:59:48.444Z,-1.60
2023-11-23T02:02:16.520Z,-1.62
2023-11-23T02:04:44.158Z,-1.59
2023-11-23T02:07:12.341Z,-1.54
2023-11-23T02:09:39.951Z,-1.51
2023-11-23T02:12:10.030Z,-1.51
2023-11-23T02:14:37.988Z,-1.52
2023-11-23T02:17:17.992Z,-1.55
2023-11-23T02:19:49.996Z,-1.57
2023-11-23T02:22:17.668Z,-1.56
2023-11-23T02:24:45.585Z,-1.55
2023-11-23T02:27:13.307Z,-1.54
2023-11-23T02:29:41.011Z,-1.57
2023-11-23T02:32:09.342Z,-1.61
2023-11-23T02:34:37.800Z,-1.62
2023-11-23T02:37:06.080Z,-1.59
2023-11-23T02:39:34.045Z,-1.54
2023-11-23T02:42:02.001Z,-1.51
2023-11-23T02:44:30.083Z,-1.51
2023-11-23T02:46:57.845Z,-1.52
2023-11-23T02:49:25.468Z,-1.55
2023-11-23T02:51:53.097Z,-1.55
2023-11-23T02:54:20.756Z,-1.53
2023-11-23T02:56:48.634Z,-1.49
2023-11-23T02:59:16.312Z,-1.47
2023-11-23T03:01:44.079Z,-1.47
2023-11-23T03:04:12.103Z,-1.48
2023-11-23T03:06:39.723Z,-1.47
2023-11-23T03:09:08.645Z,-1.42
2023-11-23T03:11:36.330Z,-1.39
2023-11-23T03:14:05.139Z,-1.37
2023-11-23T03:16:33.682Z,-1.37
2023-11-23T03:19:01.677Z,-1.39
2023-11-23T03:21:29.495Z,-1.38
2023-11-23T03:23:57.428Z,-1.34
2023-11-23T03:26:25.601Z,-1.30
2023-11-23T03:28:53.758Z,-1.27
2023-11-23T03:31:22.039Z,-1.26
2023-11-23T03:33:49.688Z,-1.26
2023-11-23T03:36:17.350Z,-1.25
2023-11-23T03:38:45.130Z,-1.23
2023-11-23T03:41:12.872Z,-1.20
2023-11-23T03:43:40.455Z,-1.17
2023-11-23T03:46:09.606Z,-1.18
2023-11-23T03:48:37.314Z,-1.20
2023-11-23T03:51:05.379Z,-1.23
2023-11-23T03:53:33.320Z,-1.23
2023-11-23T03:56:00.986Z,-1.20
2023-11-23T03:58:28.583Z,-1.14
2023-11-23T04:00:56.312Z,-1.10
2023-11-23T04:03:23.952Z,-1.09
2023-11-23T04:05:52.252Z,-1.09
2023-11-23T04:08:23.221Z,-1.09
2023-11-23T04:10:50.839Z,-1.09
2023-11-23T04:13:18.452Z,-1.05
2023-11-23T04:15:49.058Z,-1.01
2023-11-23T04:18:16.688Z,-0.99
2023-11-23T04:20:44.337Z,-0.99
2023-11-23T04:23:12.779Z,-1.00
2023-11-23T04:25:40.526Z,-0.97
2023-11-23T04:28:08.169Z,-0.92
2023-11-23T04:30:35.933Z,-0.88
2023-11-23T04:33:03.746Z,-0.86
2023-11-23T04:35:31.479Z,-0.86
2023-11-23T04:37:59.355Z,-0.87
2023-11-23T04:40:26.929Z,-0.86
2023-11-23T04:42:54.539Z,-0.81
2023-11-23T04:45:22.244Z,-0.78
2023-11-23T04:47:49.988Z,-0.75
2023-11-23T04:50:20.731Z,-0.75
2023-11-23T04:52:49.722Z,-0.76
2023-11-23T04:55:17.362Z,-0.73
2023-11-23T04:57:44.950Z,-0.70
2023-11-23T05:00:14.091Z,-0.68
2023-11-23T05:02:44.765Z,-0.68
2023-11-23T05:05:13.362Z,-0.67
2023-11-23T05:07:41.469Z,-0.65
2023-11-23T05:10:09.476Z,-0.60
2023-11-23T05:12:37.780Z,-0.56
2023-11-23T05:15:06.435Z,-0.55
2023-11-23T05:17:34.108Z,-0.56
2023-11-23T05:20:01.714Z,-0.55
2023-11-23T05:22:29.531Z,-0.50
2023-11-23T05:24:57.735Z,-0.43
2023-11-23T05:27:25.423Z,-0.40
2023-11-23T05:29:53.124Z,-0.39
2023-11-23T05:32:20.817Z,-0.39
2023-11-23T05:34:48.460Z,-0.38
2023-11-23T05:37:16.055Z,-0.34
2023-11-23T05:39:44.688Z,-0.29
2023-11-23T05:42:12.655Z,-0.28
2023-11-23T05:44:40.537Z,-0.28
2023-11-23T05:47:08.417Z,-0.28
2023-11-23T05:49:36.112Z,-0.27
2023-11-23T05:52:03.926Z,-0.23
2023-11-23T05:54:31.977Z,-0.18
2023-11-23T05:56:59.607Z,-0.17
2023-11-23T05:59:27.226Z,-0.17
2023-11-23T06:01:55.010Z,-0.17
2023-11-23T06:04:22.823Z,-0.13
2023-11-23T06:06:52.844Z,-0.09
2023-11-23T06:09:20.896Z,-0.06
2023-11-23T06:11:48.533Z,-0.06
2023-11-23T06:14:16.165Z,-0.06
2023-11-23T06:16:43.864Z,-0.03
2023-11-23T06:19:11.633Z,0.04
2023-11-23T06:21:39.447Z,0.09
2023-11-23T06:24:07.983Z,0.11
2023-11-23T06:26:35.586Z,0.12
2023-11-23T06:29:03.226Z,0.14
2023-11-23T06:31:31.214Z,0.19
2023-11-23T06:33:59.645Z,0.23
2023-11-23T06:36:27.358Z,0.24
2023-11-23T06:38:55.338Z,0.24
2023-11-23T06:41:23.156Z,0.25
2023-11-23T06:43:51.401Z,0.29
2023-11-23T06:46:19.683Z,0.33
2023-11-23T06:48:47.374Z,0.36
2023-11-23T06:51:15.351Z,0.36
2023-11-23T06:53:47.833Z,0.36
2023-11-23T06:56:16.708Z,0.37
2023-11-23T06:58:47.881Z,0.41
2023-11-23T07:01:16.407Z,0.44
2023-11-23T07:03:44.855Z,0.44
2023-11-23T07:06:15.448Z,0.45
2023-11-23T07:08:43.361Z,0.49
2023-11-23T07:11:14.336Z,0.51
2023-11-23T07:13:42.276Z,0.53
2023-11-23T07:16:10.984Z,0.53
2023-11-23T07:18:39.093Z,0.55
2023-11-23T07:21:07.207Z,0.59
2023-11-23T07:23:37.628Z,0.60
2023-11-23T07:26:05.835Z,0.61
2023-11-23T07:28:33.574Z,0.61
2023-11-23T07:31:02.268Z,0.64
2023-11-23T07:33:35.970Z,0.69
2023-11-23T07:36:06.938Z,0.75
2023-11-23T07:38:34.604Z,0.80
2023-11-23T07:41:02.580Z,0.81
2023-11-23T07:43:32.342Z,0.82
2023-11-23T07:46:01.337Z,0.85
2023-11-23T07:48:30.696Z,0.90
2023-11-23T07:50:58.583Z,0.93
2023-11-23T07:53:29.757Z,0.93
2023-11-23T07:56:00.740Z,0.91
2023-11-23T07:58:28.354Z,0.89
2023-11-23T08:00:56.169Z,0.92
2023-11-23T08:03:23.914Z,0.97
2023-11-23T08:05:51.725Z,0.99
2023-11-23T08:08:19.452Z,1.01
2023-11-23T08:10:47.188Z,1.04
2023-11-23T08:13:17.690Z,1.11
2023-11-23T08:15:45.351Z,1.14
2023-11-23T08:18:13.269Z,1.16
2023-11-23T08:20:41.063Z,1.16
2023-11-23T08:23:09.375Z,1.15
2023-11-23T08:25:38.228Z,1.15
2023-11-23T08:28:05.841Z,1.15
2023-11-23T08:30:33.497Z,1.14
2023-11-23T08:33:01.335Z,1.13
2023-11-23T08:35:29.612Z,1.12
2023-11-23T08:37:57.263Z,1.16
2023-11-23T08:40:24.946Z,1.21
2023-11-23T08:42:52.585Z,1.24
2023-11-23T08:45:20.202Z,1.26
2023-11-23T08:47:47.933Z,1.29
2023-11-23T08:50:15.660Z,1.36
2023-11-23T08:52:43.238Z,1.42
2023-11-23T08:55:11.329Z,1.46
2023-11-23T08:57:38.985Z,1.46
2023-11-23T09:00:13.173Z,1.49
2023-11-23T09:02:41.306Z,1.54
2023-11-23T09:05:10.810Z,1.55
2023-11-23T09:07:47.325Z,1.58
2023-11-23T09:10:15.947Z,1.60
2023-11-23T09:12:47.302Z,1.67
2023-11-23T09:15:17.146Z,1.72
2023-11-23T09:17:45.333Z,1.76
2023-11-23T09:20:14.267Z,1.78
2023-11-23T09:22:41.912Z,1.84
2023-11-23T09:25:09.835Z,1.86
2023-11-23T09:27:38.192Z,1.90
2023-11-23T09:30:09.729Z,1.92
2023-11-23T09:32:40.427Z,1.95
2023-11-23T09:35:11.332Z,2.00
2023-11-23T09:37:39.406Z,2.02
2023-11-23T09:40:10.601Z,2.03
2023-11-23T09:42:39.911Z,2.06
2023-11-23T09:45:08.991Z,2.14
2023-11-23T09:47:36.724Z,2.22
2023-11-23T09:50:04.798Z,2.28
2023-11-23T09:52:33.192Z,2.30
2023-11-23T09:55:01.487Z,2.33
2023-11-23T09:57:29.599Z,2.39
2023-11-23T09:59:57.283Z,2.47
2023-11-23T10:02:32.826Z,2.53
2023-11-23T10:05:01.446Z,2.53
2023-11-23T10:07:29.114Z,2.51
2023-11-23T10:09:56.793Z,2.50
2023-11-23T10:12:26.516Z,2.50
2023-11-23T10:14:54.524Z,2.52
2023-11-23T10:17:22.157Z,2.53
2023-11-23T10:19:50.415Z,2.53
2023-11-23T10:22:18.875Z,2.52
2023-11-23T10:24:48.170Z,2.51
2023-11-23T10:27:17.001Z,2.52
2023-11-23T10:29:44.659Z,2.54
2023-11-23T10:32:12.338Z,2.53
2023-11-23T10:34:40.079Z,2.51
2023-11-23T10:37:07.714Z,2.51
2023-11-23T10:39:35.550Z,2.54
2023-11-23T10:42:04.506Z,2.56
2023-11-23T10:44:33.773Z,2.58
2023-11-23T10:47:04.762Z,2.61
2023-11-23T10:49:35.847Z,2.64
2023-11-23T10:52:09.656Z,2.71
2023-11-23T10:54:38.099Z,2.78
2023-11-23T10:57:08.693Z,2.81
2023-11-23T10:59:36.896Z,2.86
2023-11-23T11:02:04.779Z,2.89
2023-11-23T11:04:32.648Z,2.94
2023-11-23T11:07:00.335Z,2.99
2023-11-23T11:09:30.509Z,3.03
2023-11-23T11:12:01.662Z,3.05
2023-11-23T11:14:36.189Z,3.05
2023-11-23T11:17:07.495Z,3.07
2023-11-23T11:19:50.928Z,3.12
2023-11-23T11:22:18.964Z,3.15
2023-11-23T11:24:47.010Z,3.16
2023-11-23T11:27:14.896Z,3.20
2023-11-23T11:29:54.564Z,3.26
2023-11-23T11:32:22.499Z,3.35
2023-11-23T11:35:00.316Z,3.41
2023-11-23T11:37:29.614Z,3.47
2023-11-23T11:39:57.262Z,3.52
2023-11-23T11:42:25.240Z,3.58
2023-11-23T11:44:54.882Z,3.68
2023-11-23T11:47:24.828Z,3.72
2023-11-23T11:49:53.406Z,3.73
2023-11-23T11:52:21.004Z,3.72
2023-11-23T11:54:50.012Z,3.75
2023-11-23T11:57:19.806Z,3.78
2023-11-23T11:59:47.945Z,3.81
2023-11-23T12:02:15.791Z,3.80
2023-11-23T12:04:43.626Z,3.77
2023-11-23T12:07:15.834Z,3.75
2023-11-23T12:09:46.926Z,3.76
2023-11-23T12:12:15.388Z,3.77
2023-11-23T12:14:45.359Z,3.77
2023-11-23T12:17:13.832Z,3.74
2023-11-23T12:19:52.818Z,3.71
2023-11-23T12:22:27.581Z,3.72
2023-11-23T12:25:00.586Z,3.75
2023-11-23T12:27:28.402Z,3.76
2023-11-23T12:29:56.192Z,3.77
2023-11-23T12:32:23.964Z,3.75
2023-11-23T12:34:51.641Z,3.73
2023-11-23T12:37:20.442Z,3.73
2023-11-23T12:39:51.744Z,3.76
2023-11-23T12:42:19.697Z,3.77
2023-11-23T12:44:51.906Z,3.76
2023-11-23T12:47:26.180Z,3.73
2023-11-23T12:49:55.191Z,3.71
2023-11-23T12:52:23.540Z,3.72
2023-11-23T12:54:51.389Z,3.75
2023-11-23T12:57:19.064Z,3.76
2023-11-23T12:59:46.821Z,3.75
2023-11-23T13:02:14.728Z,3.74
2023-11-23T13:04:42.485Z,3.75
2023-11-23T13:07:10.491Z,3.77
2023-11-23T13:09:39.236Z,3.78
2023-11-23T13:12:08.616Z,3.77
2023-11-23T13:14:36.575Z,3.74
2023-11-23T13:17:04.880Z,3.72
2023-11-23T13:19:37.574Z,3.72
2023-11-23T13:22:10.960Z,3.73
2023-11-23T13:24:39.804Z,3.71
2023-11-23T13:27:09.238Z,3.67
2023-11-23T13:29:38.406Z,3.64
2023-11-23T13:32:06.984Z,3.64
2023-11-23T13:34:34.907Z,3.63
2023-11-23T13:37:03.022Z,3.61
2023-11-23T13:39:32.629Z,3.59
2023-11-23T13:42:00.812Z,3.59
2023-11-23T13:44:28.783Z,3.62
2023-11-23T13:46:56.519Z,3.64
2023-11-23T13:49:25.200Z,3.65
2023-11-23T13:51:52.925Z,3.65
2023-11-23T13:54:22.890Z,3.69
2023-11-23T13:56:50.523Z,3.72
2023-11-23T13:59:18.270Z,3.73
2023-11-23T14:01:45.967Z,3.71
2023-11-23T14:04:14.544Z,3.71
2023-11-23T14:06:43.545Z,3.74
2023-11-23T14:09:18.696Z,3.76
2023-11-23T14:11:46.896Z,3.74
2023-11-23T14:14:14.617Z,3.72
2023-11-23T14:16:43.454Z,3.70
2023-11-23T14:19:17.169Z,3.71
2023-11-23T14:21:47.813Z,3.70
2023-11-23T14:24:16.954Z,3.67
2023-11-23T14:26:44.837Z,3.63
2023-11-23T14:29:12.923Z,3.63
2023-11-23T14:31:40.818Z,3.63
2023-11-23T14:34:08.670Z,3.62
2023-11-23T14:36:36.440Z,3.60
2023-11-23T14:39:05.839Z,3.56
2023-11-23T14:41:33.625Z,3.56
2023-11-23T14:44:01.338Z,3.56
2023-11-23T14:46:31.317Z,3.54
2023-11-23T14:48:59.056Z,3.50
2023-11-23T14:51:30.502Z,3.46
2023-11-23T14:54:04.190Z,3.46
2023-11-23T14:56:37.859Z,3.45
2023-11-23T14:59:06.883Z,3.41
2023-11-23T15:01:36.388Z,3.38
2023-11-23T15:04:04.880Z,3.39
2023-11-23T15:06:32.814Z,3.39
2023-11-23T15:09:00.433Z,3.37
2023-11-23T15:11:30.019Z,3.33
2023-11-23T15:13:58.794Z,3.32
2023-11-23T15:16:26.501Z,3.34
2023-11-23T15:18:54.392Z,3.34
2023-11-23T15:21:22.175Z,3.34
2023-11-23T15:23:49.868Z,3.33
2023-11-23T15:26:17.562Z,3.34
2023-11-23T15:28:45.505Z,3.36
2023-11-23T15:31:16.815Z,3.35
2023-11-23T15:33:44.578Z,3.36
2023-11-23T15:36:12.418Z,3.39
2023-11-23T15:38:40.040Z,3.41
2023-11-23T15:41:07.744Z,3.42
2023-11-23T15:43:35.426Z,3.45
2023-11-23T15:46:06.014Z,3.50
2023-11-23T15:48:34.414Z,3.52
2023-11-23T15:51:02.065Z,3.52
2023-11-23T15:53:29.685Z,3.53
2023-11-23T15:55:57.306Z,3.56
2023-11-23T15:58:25.123Z,3.56
2023-11-23T16:00:54.048Z,3.56
2023-11-23T16:03:21.889Z,3.58
2023-11-23T16:05:49.754Z,3.62
2023-11-23T16:08:18.201Z,3.65
2023-11-23T16:10:45.944Z,3.65
2023-11-23T16:13:21.624Z,3.66
2023-11-23T16:15:49.734Z,3.70
2023-11-23T16:18:18.441Z,3.74
2023-11-23T16:20:47.009Z,3.75
2023-11-23T16:23:14.622Z,3.77
2023-11-23T16:25:42.209Z,3.81
2023-11-23T16:28:09.915Z,3.84
2023-11-23T16:30:38.138Z,3.87
2023-11-23T16:33:06.064Z,3.88
2023-11-23T16:35:33.740Z,3.91
2023-11-23T16:38:01.493Z,3.95
2023-11-23T16:40:29.200Z,3.99
2023-11-23T16:42:56.816Z,4.00
2023-11-23T16:45:24.673Z,3.99
2023-11-23T16:47:54.344Z,4.01
2023-11-23T16:50:22.446Z,4.05
2023-11-23T16:52:50.953Z,4.07
2023-11-23T16:55:18.722Z,4.08
2023-11-23T16:57:47.384Z,4.10
2023-11-23T17:00:15.892Z,4.15
2023-11-23T17:02:44.489Z,4.18
2023-11-23T17:05:15.012Z,4.20
2023-11-23T17:07:43.026Z,4.23
2023-11-23T17:10:10.756Z,4.28
2023-11-23T17:12:38.773Z,4.32
2023-11-23T17:15:08.520Z,4.34
2023-11-23T17:17:36.372Z,4.37
2023-11-23T17:20:04.259Z,4.41
2023-11-23T17:22:35.467Z,4.44
2023-11-23T17:25:04.179Z,4.46
2023-11-23T17:27:31.885Z,4.49
2023-11-23T17:30:00.063Z,4.54
2023-11-23T17:32:27.661Z,4.59
2023-11-23T17:34:55.314Z,4.61
2023-11-23T17:37:26.345Z,4.62
2023-11-23T17:39:53.946Z,4.65
2023-11-23T17:42:21.742Z,4.68
2023-11-23T17:44:49.325Z,4.69
2023-11-23T17:47:17.145Z,4.68
2023-11-23T17:49:44.716Z,4.69
2023-11-23T17:52:14.863Z,4.72
2023-11-23T17:54:44.011Z,4.76
2023-11-23T17:57:12.222Z,4.78
2023-11-23T17:59:47.760Z,4.78
2023-11-23T18:02:21.266Z,4.82
2023-11-23T18:04:53.429Z,4.86
2023-11-23T18:07:21.474Z,4.88
2023-11-23T18:09:50.595Z,4.89
2023-11-23T18:12:18.533Z,4.92
2023-11-23T18:14:46.238Z,4.95
2023-11-23T18:17:14.019Z,4.96
2023-11-23T18:19:41.819Z,4.96
2023-11-23T18:22:09.862Z,4.98
2023-11-23T18:24:37.595Z,5.02
2023-11-23T18:27:07.749Z,5.04
2023-11-23T18:29:37.290Z,5.04
2023-11-23T18:32:05.113Z,5.06
2023-11-23T18:34:35.220Z,5.09
2023-11-23T18:37:03.153Z,5.11
2023-11-23T18:39:30.895Z,5.12
2023-11-23T18:41:59.548Z,5.13
2023-11-23T18:44:27.236Z,5.15
2023-11-23T18:46:55.849Z,5.18
2023-11-23T18:49:28.808Z,5.21
2023-11-23T18:51:56.673Z,5.22
2023-11-23T18:54:25.311Z,5.21
2023-11-23T18:56:52.999Z,5.22
2023-11-23T18:59:20.630Z,5.26
2023-11-23T19:01:48.380Z,5.31
2023-11-23T19:04:16.099Z,5.31
2023-11-23T19:06:44.040Z,5.30
2023-11-23T19:09:15.467Z,5.32
2023-11-23T19:11:43.569Z,5.35
2023-11-23T19:14:11.379Z,5.34
2023-11-23T19:16:40.584Z,5.34
2023-11-23T19:19:08.801Z,5.34
2023-11-23T19:21:37.031Z,5.39
2023-11-23T19:24:05.165Z,5.40
2023-11-23T19:26:33.393Z,5.40
2023-11-23T19:29:03.622Z,5.40
2023-11-23T19:31:32.439Z,5.43
2023-11-23T19:34:00.545Z,5.45
2023-11-23T19:36:29.114Z,5.47
2023-11-23T19:38:56.988Z,5.46
2023-11-23T19:41:24.670Z,5.47
2023-11-23T19:43:52.759Z,5.50
2023-11-23T19:46:21.331Z,5.51
2023-11-23T19:48:49.428Z,5.51
2023-11-23T19:51:19.499Z,5.51
2023-11-23T19:53:47.774Z,5.55
2023-11-23T19:56:15.379Z,5.58
2023-11-23T19:58:43.219Z,5.58
2023-11-23T20:01:11.314Z,5.57
2023-11-23T20:03:39.075Z,5.59
2023-11-23T20:06:06.868Z,5.62
2023-11-23T20:08:34.449Z,5.62
2023-11-23T20:11:02.011Z,5.62
2023-11-23T20:13:29.730Z,5.63
2023-11-23T20:15:58.491Z,5.67
2023-11-23T20:18:26.192Z,5.69
2023-11-23T20:20:54.019Z,5.70
2023-11-23T20:23:21.725Z,5.71
2023-11-23T20:25:49.332Z,5.74
2023-11-23T20:28:17.053Z,5.76
2023-11-23T20:30:45.010Z,5.76
2023-11-23T20:33:16.643Z,5.77
2023-11-23T20:35:45.640Z,5.79
2023-11-23T20:38:14.008Z,5.83
2023-11-23T20:40:43.856Z,5.84
2023-11-23T20:43:12.125Z,5.85
2023-11-23T20:45:39.947Z,5.89
2023-11-23T20:48:07.941Z,5.92
2023-11-23T20:50:35.967Z,5.93
2023-11-23T20:53:05.445Z,5.94
2023-11-23T20:55:33.683Z,5.96
2023-11-23T20:58:01.585Z,5.99
2023-11-23T21:00:29.549Z,6.01
2023-11-23T21:02:58.857Z,6.00
2023-11-23T21:05:28.373Z,6.04
2023-11-23T21:07:56.318Z,6.08
2023-11-23T21:10:24.151Z,6.09
2023-11-23T21:12:51.780Z,6.10
2023-11-23T21:15:21.545Z,6.13
2023-11-23T21:17:49.284Z,6.16
2023-11-23T21:20:17.088Z,6.19
2023-11-23T21:22:44.846Z,6.20
2023-11-23T21:25:12.567Z,6.22
2023-11-23T21:27:40.530Z,6.24
2023-11-23T21:30:08.852Z,6.26
2023-11-23T21:32:36.610Z,6.26
2023-11-23T21:35:04.817Z,6.24
2023-11-23T21:37:32.444Z,6.23
2023-11-23T21:40:00.386Z,6.23
2023-11-23T21:42:28.254Z,6.23
2023-11-23T21:44:57.726Z,6.20
2023-11-23T21:47:25.323Z,6.17
2023-11-23T21:49:52.917Z,6.16
2023-11-23T21:52:20.539Z,6.15
2023-11-23T21:54:57.420Z,6.12
2023-11-23T21:57:31.384Z,6.10
2023-11-23T21:59:59.373Z,6.10
2023-11-23T22:02:27.048Z,6.10
2023-11-23T22:04:55.309Z,6.08
2023-11-23T22:07:24.292Z,6.08
2023-11-23T22:09:52.311Z,6.09
2023-11-23T22:12:20.374Z,6.11
2023-11-23T22:14:48.301Z,6.09
2023-11-23T22:17:16.376Z,6.07
2023-11-23T22:19:44.492Z,6.08
2023-11-23T22:22:12.565Z,6.08
2023-11-23T22:24:41.036Z,6.07
2023-11-23T22:27:09.337Z,6.05
2023-11-23T22:29:37.112Z,6.09
2023-11-23T22:32:05.670Z,6.09
2023-11-23T22:34:33.928Z,6.08
2023-11-23T22:37:02.090Z,6.08
2023-11-23T22:39:29.855Z,6.08
2023-11-23T22:41:57.979Z,6.08
2023-11-23T22:44:25.861Z,6.07
2023-11-23T22:46:54.026Z,6.08
2023-11-23T22:49:21.781Z,6.09
2023-11-23T22:51:49.554Z,6.08
2023-11-23T22:54:17.222Z,6.05
2023-11-23T22:56:45.033Z,6.04
2023-11-23T22:59:12.648Z,6.03
2023-11-23T23:01:40.340Z,6.02
2023-11-23T23:04:11.192Z,5.99
2023-11-23T23:06:39.005Z,5.97
2023-11-23T23:09:09.055Z,5.97
2023-11-23T23:11:37.126Z,5.96
2023-11-23T23:14:05.643Z,5.94
2023-11-23T23:16:33.703Z,5.92
2023-11-23T23:19:01.464Z,5.92
2023-11-23T23:21:32.577Z,5.93
2023-11-23T23:24:00.434Z,5.91
2023-11-23T23:26:28.004Z,5.90
2023-11-23T23:28:55.689Z,5.91
2023-11-23T23:31:23.275Z,5.91
2023-11-23T23:33:51.016Z,5.91
2023-11-23T23:36:18.658Z,5.90
2023-11-23T23:38:46.548Z,5.90
2023-11-23T23:41:14.919Z,5.88
2023-11-23T23:43:46.803Z,5.85
2023-11-23T23:46:14.676Z,5.84
2023-11-23T23:48:42.381Z,5.83
2023-11-23T23:51:10.034Z,5.80
2023-11-23T23:53:38.934Z,5.76
2023-11-23T23:56:08.033Z,5.73
2023-11-23T23:58:36.131Z,5.71
